createdAt,value
2019-03-21T00:00:38.916Z,8.43
2019-03-21T00:03:09.947Z,7.43
2019-03-21T00:05:40.966Z,7.57
2019-03-21T00:08:12.705Z,7.00
2019-03-21T00:11:25.903Z,5.90
2019-03-21T00:14:06.941Z,6.07
2019-03-21T00:16:32.950Z,5.50
2019-03-21T00:19:03.980Z,6.07
2019-03-21T00:21:35.163Z,5.60
2019-03-21T00:24:06.379Z,5.63
2019-03-21T00:26:37.457Z,6.33
2019-03-21T00:29:09.631Z,6.17
2019-03-21T00:31:40.918Z,6.60
2019-03-21T00:34:12.333Z,7.87
2019-03-21T00:36:45.318Z,6.40
2019-03-21T00:39:16.565Z,5.30
2019-03-21T00:41:48.067Z,5.30
2019-03-21T00:44:19.191Z,6.43
2019-03-21T00:46:50.522Z,7.70
2019-03-21T00:49:21.739Z,7.20
2019-03-21T00:51:52.953Z,5.70
2019-03-21T00:54:25.322Z,6.90
2019-03-21T00:56:56.589Z,9.10
2019-03-21T00:59:27.929Z,6.73
2019-03-21T01:01:59.363Z,8.50
2019-03-21T01:04:32.939Z,7.23
2019-03-21T01:07:04.318Z,6.08
2019-03-21T01:09:35.500Z,6.97
2019-03-21T01:12:06.837Z,6.27
2019-03-21T01:14:38.025Z,6.65
2019-03-21T01:17:09.140Z,5.87
2019-03-21T01:19:40.337Z,9.73
2019-03-21T01:22:11.876Z,5.80
2019-03-21T01:24:42.991Z,10.60
2019-03-21T01:27:14.331Z,7.00
2019-03-21T01:29:46.036Z,5.97
2019-03-21T01:32:20.247Z,10.77
2019-03-21T01:34:52.002Z,8.30
2019-03-21T01:37:23.099Z,7.87
2019-03-21T01:39:54.349Z,5.57
2019-03-21T01:42:25.503Z,7.00
2019-03-21T01:44:56.685Z,9.67
2019-03-21T01:47:28.075Z,6.70
2019-03-21T01:49:59.177Z,5.53
2019-03-21T01:52:30.306Z,6.33
2019-03-21T01:55:01.665Z,5.87
2019-03-21T01:57:33.117Z,6.63
2019-03-21T02:00:04.490Z,6.63
2019-03-21T02:02:35.710Z,8.80
2019-03-21T02:05:07.459Z,6.35
2019-03-21T02:07:38.671Z,6.12
2019-03-21T02:10:12.427Z,7.37
2019-03-21T02:12:43.866Z,6.23
2019-03-21T02:15:15.049Z,9.80
2019-03-21T02:17:46.204Z,6.62
2019-03-21T02:20:17.246Z,7.07
2019-03-21T02:22:48.743Z,6.47
2019-03-21T02:25:22.168Z,6.55
2019-03-21T02:27:53.311Z,7.55
2019-03-21T02:30:26.908Z,8.03
2019-03-21T02:33:07.755Z,8.25
2019-03-21T02:35:38.802Z,6.45
2019-03-21T02:38:09.898Z,6.40
2019-03-21T02:40:41.081Z,5.92
2019-03-21T02:43:12.215Z,5.25
2019-03-21T02:45:43.277Z,5.15
2019-03-21T02:48:18.073Z,5.30
2019-03-21T02:50:49.405Z,4.92
2019-03-21T02:53:39.255Z,6.07
2019-03-21T02:56:12.120Z,6.10
2019-03-21T02:58:44.276Z,5.00
2019-03-21T03:01:15.616Z,7.15
2019-03-21T03:03:46.695Z,8.83
2019-03-21T03:06:17.846Z,7.75
2019-03-21T03:08:48.923Z,5.57
2019-03-21T03:11:21.546Z,5.37
2019-03-21T03:13:52.785Z,8.38
2019-03-21T03:16:24.013Z,10.25
2019-03-21T03:18:55.181Z,7.03
2019-03-21T03:21:26.454Z,5.80
2019-03-21T03:23:57.536Z,6.00
2019-03-21T03:26:28.716Z,5.55
2019-03-21T03:29:01.564Z,5.95
2019-03-21T03:31:32.791Z,7.15
2019-03-21T03:34:03.834Z,4.12
2019-03-21T03:36:35.219Z,7.33
2019-03-21T03:39:25.159Z,7.27
2019-03-21T03:42:15.033Z,7.37
2019-03-21T03:48:41.825Z,6.03
2019-03-21T04:01:56.162Z,5.92
2019-03-21T04:04:38.267Z,6.03
2019-03-21T04:07:20.046Z,7.37
2019-03-21T04:10:02.281Z,7.05
2019-03-21T04:12:44.284Z,8.48
2019-03-21T04:15:26.746Z,7.17
2019-03-21T04:18:09.259Z,6.12
2019-03-21T04:20:51.722Z,6.55
2019-03-21T04:23:33.597Z,11.68
2019-03-21T04:26:15.863Z,5.47
2019-03-21T04:28:58.229Z,7.45
2019-03-21T04:31:40.143Z,8.63
2019-03-21T04:34:22.668Z,6.58
2019-03-21T04:37:05.251Z,7.00
2019-03-21T04:39:47.209Z,7.35
2019-03-21T04:42:29.534Z,10.60
2019-03-21T04:45:11.836Z,8.18
2019-03-21T04:47:54.431Z,6.53
2019-03-21T04:50:36.158Z,6.95
2019-03-21T04:53:18.191Z,7.05
2019-03-21T04:56:00.139Z,6.22
2019-03-21T04:58:42.407Z,6.33
2019-03-21T05:01:24.156Z,6.72
2019-03-21T05:04:06.416Z,8.78
2019-03-21T05:06:48.650Z,6.45
2019-03-21T05:09:30.976Z,8.43
2019-03-21T05:12:13.309Z,7.87
2019-03-21T05:14:55.740Z,7.53
2019-03-21T05:17:37.517Z,6.30
2019-03-21T05:20:19.967Z,7.55
2019-03-21T05:23:02.396Z,9.25
2019-03-21T05:25:44.903Z,7.00
2019-03-21T05:28:26.946Z,6.05
2019-03-21T05:31:09.339Z,7.15
2019-03-21T05:33:51.683Z,5.75
2019-03-21T05:36:34.181Z,6.83
2019-03-21T05:39:16.706Z,7.08
2019-03-21T05:41:58.990Z,6.17
2019-03-21T05:44:41.556Z,5.35
2019-03-21T05:47:23.472Z,6.17
2019-03-21T05:50:05.710Z,5.50
2019-03-21T05:52:47.959Z,5.72
2019-03-21T05:55:30.541Z,7.87
2019-03-21T05:58:12.905Z,7.03
2019-03-21T06:00:56.004Z,5.00
2019-03-21T06:03:38.160Z,5.65
2019-03-21T06:06:20.274Z,8.58
2019-03-21T06:09:04.249Z,7.12
2019-03-21T06:11:46.765Z,5.05
2019-03-21T06:14:30.037Z,6.22
2019-03-21T06:17:12.314Z,5.25
2019-03-21T06:19:54.751Z,5.58
2019-03-21T06:22:36.492Z,8.73
2019-03-21T06:25:19.194Z,8.23
2019-03-21T06:28:01.153Z,6.50
2019-03-21T06:30:43.290Z,5.70
2019-03-21T06:33:25.376Z,5.15
2019-03-21T06:36:07.238Z,8.88
2019-03-21T06:38:49.479Z,5.53
2019-03-21T06:41:31.495Z,6.50
2019-03-21T06:44:12.425Z,9.40
2019-03-21T06:53:33.028Z,6.67
2019-03-21T07:03:47.832Z,7.67
2019-03-21T07:22:53.853Z,8.00
2019-03-21T07:28:59.955Z,6.20
2019-03-21T07:32:09.631Z,11.03
2019-03-21T07:38:18.672Z,8.38
2019-03-21T07:41:27.986Z,9.93
2019-03-21T07:44:29.402Z,8.45
2019-03-21T07:47:13.028Z,7.60
2019-03-21T07:49:55.477Z,6.83
2019-03-21T07:52:37.851Z,6.78
2019-03-21T07:55:20.191Z,7.62
2019-03-21T07:58:02.352Z,8.07
2019-03-21T08:00:44.414Z,6.13
2019-03-21T08:03:26.433Z,8.37
2019-03-21T08:06:08.699Z,7.80
2019-03-21T08:08:50.662Z,5.93
2019-03-21T08:11:33.342Z,7.20
2019-03-21T08:14:15.071Z,10.93
2019-03-21T08:16:57.126Z,6.87
2019-03-21T08:19:39.182Z,5.13
2019-03-21T08:22:21.911Z,5.93
2019-03-21T08:25:04.187Z,6.63
2019-03-21T08:27:46.655Z,5.77
2019-03-21T08:30:29.172Z,5.70
2019-03-21T08:33:11.446Z,6.63
2019-03-21T08:35:53.375Z,7.93
2019-03-21T08:38:35.994Z,6.50
2019-03-21T08:41:17.840Z,6.07
2019-03-21T08:44:00.135Z,5.37
2019-03-21T08:46:42.101Z,6.53
2019-03-21T08:49:24.027Z,5.17
2019-03-21T08:52:06.023Z,5.50
2019-03-21T08:54:47.910Z,4.77
2019-03-21T08:57:30.007Z,6.63
2019-03-21T09:00:12.399Z,5.40
2019-03-21T09:02:54.370Z,5.13
2019-03-21T09:05:36.807Z,6.80
2019-03-21T09:08:19.372Z,5.87
2019-03-21T09:11:01.221Z,5.30
2019-03-21T09:13:43.139Z,6.87
2019-03-21T09:16:25.372Z,5.00
2019-03-21T09:19:07.311Z,5.50
2019-03-21T09:21:49.681Z,6.07
2019-03-21T09:24:31.429Z,5.10
2019-03-21T09:27:13.451Z,7.60
2019-03-21T09:29:55.391Z,6.50
2019-03-21T09:32:37.447Z,6.60
2019-03-21T09:35:19.429Z,4.73
2019-03-21T09:38:01.564Z,8.97
2019-03-21T09:40:43.273Z,4.60
2019-03-21T09:43:25.414Z,4.50
2019-03-21T09:46:07.648Z,5.00
2019-03-21T09:48:49.464Z,6.47
2019-03-21T09:51:31.518Z,5.33
2019-03-21T09:54:13.991Z,6.80
2019-03-21T09:56:55.985Z,4.63
2019-03-21T09:59:38.256Z,6.20
2019-03-21T10:02:20.735Z,5.17
2019-03-21T10:05:02.774Z,3.47
2019-03-21T10:07:44.843Z,5.07
2019-03-21T10:10:26.688Z,3.73
2019-03-21T10:13:08.991Z,5.33
2019-03-21T10:15:50.686Z,3.17
2019-03-21T10:18:33.225Z,6.60
2019-03-21T10:21:16.635Z,4.27
2019-03-21T10:23:58.571Z,4.87
2019-03-21T10:26:40.973Z,6.87
2019-03-21T10:29:22.853Z,3.47
2019-03-21T10:32:13.888Z,3.53
2019-03-21T10:34:49.082Z,8.20
2019-03-21T10:37:31.380Z,4.87
2019-03-21T10:40:13.316Z,4.93
2019-03-21T10:42:55.589Z,4.73
2019-03-21T10:45:37.701Z,5.07
2019-03-21T10:48:20.077Z,3.90
2019-03-21T10:51:02.168Z,4.80
2019-03-21T10:53:44.068Z,3.93
2019-03-21T10:56:26.200Z,4.13
2019-03-21T10:59:08.878Z,4.83
2019-03-21T11:01:51.072Z,3.30
2019-03-21T11:04:33.355Z,4.27
2019-03-21T11:07:15.101Z,3.90
2019-03-21T11:09:56.952Z,4.07
2019-03-21T11:12:38.619Z,6.10
2019-03-21T11:15:21.073Z,4.83
2019-03-21T11:18:03.162Z,3.67
2019-03-21T11:20:45.597Z,5.10
2019-03-21T11:23:27.550Z,3.80
2019-03-21T11:26:09.895Z,3.70
2019-03-21T11:28:51.977Z,6.90
2019-03-21T11:31:34.014Z,4.27
2019-03-21T11:34:16.451Z,5.80
2019-03-21T11:36:58.656Z,3.40
2019-03-21T11:39:40.965Z,6.63
2019-03-21T11:42:23.241Z,5.00
2019-03-21T11:45:05.905Z,6.07
2019-03-21T11:47:47.583Z,6.47
2019-03-21T11:50:30.167Z,5.23
2019-03-21T11:53:12.779Z,5.03
2019-03-21T11:55:54.728Z,4.30
2019-03-21T11:58:36.731Z,5.53
2019-03-21T12:01:18.981Z,5.17
2019-03-21T12:04:01.024Z,5.20
2019-03-21T12:06:42.859Z,5.03
2019-03-21T12:09:24.824Z,5.23
2019-03-21T12:12:07.065Z,5.97
2019-03-21T12:14:49.537Z,4.20
2019-03-21T12:17:31.592Z,5.30
2019-03-21T12:20:14.457Z,5.30
2019-03-21T12:22:56.718Z,4.13
2019-03-21T12:25:38.696Z,6.40
2019-03-21T12:28:20.482Z,5.60
2019-03-21T12:31:02.441Z,4.50
2019-03-21T12:33:44.651Z,5.07
2019-03-21T12:36:26.719Z,4.87
2019-03-21T12:39:08.956Z,4.27
2019-03-21T12:41:51.348Z,3.60
2019-03-21T12:44:33.070Z,3.80
2019-03-21T12:47:15.338Z,3.30
2019-03-21T12:49:57.170Z,4.03
2019-03-21T12:55:23.690Z,3.40
2019-03-21T12:58:05.739Z,4.30
2019-03-21T13:00:47.644Z,4.23
2019-03-21T13:03:29.310Z,4.97
2019-03-21T13:06:11.461Z,3.90
2019-03-21T13:07:13.351Z,6.37
2019-03-21T13:08:53.284Z,4.23
2019-03-21T13:11:35.006Z,4.90
2019-03-21T13:14:16.829Z,3.00
2019-03-21T13:16:58.713Z,2.87
2019-03-21T13:19:40.475Z,3.73
2019-03-21T13:22:22.935Z,4.57
2019-03-21T13:25:05.180Z,4.20
2019-03-21T13:27:47.481Z,4.17
2019-03-21T13:30:29.798Z,4.17
2019-03-21T13:33:12.021Z,6.83
2019-03-21T13:35:54.099Z,4.83
2019-03-21T13:38:36.338Z,6.07
2019-03-21T13:41:18.763Z,4.77
2019-03-21T13:44:00.804Z,4.80
2019-03-21T13:46:42.475Z,4.30
2019-03-21T13:49:24.287Z,5.03
2019-03-21T13:52:06.292Z,5.90
2019-03-21T13:54:48.930Z,4.63
2019-03-21T13:57:31.147Z,7.00
2019-03-21T14:00:12.880Z,5.20
2019-03-21T14:02:54.591Z,5.23
2019-03-21T14:05:36.592Z,6.70
2019-03-21T14:08:20.121Z,5.03
2019-03-21T14:11:02.691Z,4.10
2019-03-21T14:13:44.489Z,4.27
2019-03-21T14:16:26.406Z,4.60
2019-03-21T14:19:08.225Z,5.10
2019-03-21T14:21:50.201Z,5.73
2019-03-21T14:24:32.299Z,6.43
2019-03-21T14:27:14.349Z,5.13
2019-03-21T14:30:01.150Z,5.23
2019-03-21T14:32:40.329Z,4.50
2019-03-21T14:35:22.869Z,4.20
2019-03-21T14:38:05.314Z,4.30
2019-03-21T14:40:47.209Z,10.17
2019-03-21T14:43:29.787Z,5.93
2019-03-21T14:46:11.854Z,4.40
2019-03-21T14:48:54.264Z,5.20
2019-03-21T14:51:36.629Z,4.30
2019-03-21T14:54:18.795Z,5.23
2019-03-21T14:57:01.039Z,6.20
2019-03-21T14:59:43.175Z,4.07
2019-03-21T15:02:25.152Z,7.00
2019-03-21T15:05:07.161Z,7.93
2019-03-21T15:07:49.593Z,8.27
2019-03-21T15:10:31.371Z,4.93
2019-03-21T15:13:13.303Z,5.47
2019-03-21T15:15:55.554Z,4.83
2019-03-21T15:18:37.819Z,5.53
2019-03-21T15:21:19.846Z,6.00
2019-03-21T15:24:01.774Z,5.43
2019-03-21T15:26:44.026Z,6.40
2019-03-21T15:29:25.937Z,5.23
2019-03-21T15:32:07.888Z,4.57
2019-03-21T15:34:51.808Z,4.27
2019-03-21T15:37:34.038Z,3.60
2019-03-21T15:40:11.492Z,6.57
2019-03-21T15:42:42.727Z,4.70
2019-03-21T15:45:22.060Z,5.10
2019-03-21T15:47:48.205Z,4.93
2019-03-21T15:50:30.473Z,4.50
2019-03-21T15:53:01.870Z,4.23
2019-03-21T15:55:33.007Z,4.83
2019-03-21T15:58:04.896Z,4.03
2019-03-21T16:00:40.541Z,4.83
2019-03-21T16:03:13.184Z,3.30
2019-03-21T16:05:44.794Z,4.33
2019-03-21T16:08:15.926Z,4.10
2019-03-21T16:11:05.908Z,4.20
2019-03-21T16:13:37.025Z,5.70
2019-03-21T16:16:08.149Z,3.83
2019-03-21T16:18:39.274Z,4.67
2019-03-21T16:21:10.455Z,4.63
2019-03-21T16:23:41.968Z,4.20
2019-03-21T16:26:24.507Z,4.90
2019-03-21T16:28:55.739Z,6.20
2019-03-21T16:31:26.962Z,4.63
2019-03-21T16:33:58.192Z,4.00
2019-03-21T16:36:29.428Z,4.47
2019-03-21T16:39:00.455Z,3.63
2019-03-21T16:41:32.664Z,4.73
2019-03-21T16:44:03.761Z,3.80
2019-03-21T16:46:34.773Z,3.67
2019-03-21T16:49:05.920Z,4.20
2019-03-21T16:51:38.337Z,4.53
2019-03-21T16:54:17.177Z,4.60
2019-03-21T16:56:42.766Z,4.47
2019-03-21T16:59:14.119Z,3.93
2019-03-21T17:01:45.222Z,4.50
2019-03-21T17:04:16.308Z,5.30
2019-03-21T17:06:47.387Z,4.73
2019-03-21T17:09:18.561Z,4.10
2019-03-21T17:11:49.759Z,6.27
2019-03-21T17:14:21.145Z,5.40
2019-03-21T17:16:52.703Z,5.07
2019-03-21T17:19:23.919Z,4.77
2019-03-21T17:21:54.924Z,4.77
2019-03-21T17:24:29.669Z,4.50
2019-03-21T17:26:59.455Z,5.60
2019-03-21T17:29:30.746Z,5.27
2019-03-21T17:32:01.970Z,5.17
2019-03-21T17:34:33.224Z,6.93
2019-03-21T17:37:04.561Z,5.33
2019-03-21T17:39:35.754Z,6.67
2019-03-21T17:42:07.873Z,5.77
2019-03-21T17:44:39.259Z,7.30
2019-03-21T17:47:10.253Z,7.57
2019-03-21T17:49:42.743Z,6.20
2019-03-21T17:52:15.382Z,5.63
2019-03-21T17:54:47.532Z,6.90
2019-03-21T17:57:19.464Z,5.30
2019-03-21T17:59:50.603Z,6.83
2019-03-21T18:02:23.019Z,5.00
2019-03-21T18:04:54.170Z,5.13
2019-03-21T18:07:25.300Z,7.47
2019-03-21T18:09:58.129Z,7.80
2019-03-21T18:12:29.362Z,7.30
2019-03-21T18:15:01.420Z,7.00
2019-03-21T18:17:32.623Z,6.73
2019-03-21T18:20:04.052Z,6.87
2019-03-21T18:22:35.172Z,9.03
2019-03-21T18:25:07.797Z,8.47
2019-03-21T18:27:38.941Z,8.13
2019-03-21T18:30:10.515Z,7.77
2019-03-21T18:32:41.518Z,7.17
2019-03-21T18:35:13.510Z,7.27
2019-03-21T18:37:45.131Z,7.53
2019-03-21T18:40:18.020Z,6.60
2019-03-21T18:42:49.377Z,7.13
2019-03-21T18:45:20.658Z,9.40
2019-03-21T18:47:51.895Z,6.00
2019-03-21T18:50:24.514Z,7.17
2019-03-21T18:52:57.163Z,7.27
2019-03-21T18:55:28.505Z,7.13
2019-03-21T18:57:59.794Z,6.50
2019-03-21T19:00:31.112Z,8.63
2019-03-21T19:03:02.191Z,10.97
2019-03-21T19:05:33.383Z,9.03
2019-03-21T19:08:04.874Z,10.13
2019-03-21T19:10:36.458Z,9.37
2019-03-21T19:13:07.601Z,10.27
2019-03-21T19:15:39.793Z,8.63
2019-03-21T19:18:11.632Z,16.23
2019-03-21T19:20:42.752Z,12.70
2019-03-21T19:23:15.168Z,9.40
2019-03-21T19:25:46.370Z,9.30
2019-03-21T19:28:19.986Z,10.20
2019-03-21T19:30:51.409Z,8.30
2019-03-21T19:33:22.459Z,9.00
2019-03-21T19:35:53.883Z,9.50
2019-03-21T19:38:25.014Z,7.77
2019-03-21T19:40:56.231Z,7.80
2019-03-21T19:43:27.528Z,12.27
2019-03-21T19:45:58.544Z,6.20
2019-03-21T19:48:31.248Z,9.00
2019-03-21T19:51:02.555Z,9.73
2019-03-21T19:53:33.886Z,10.80
2019-03-21T19:56:08.745Z,10.87
2019-03-21T19:58:39.834Z,10.10
2019-03-21T20:01:11.284Z,9.90
2019-03-21T20:03:42.462Z,11.20
2019-03-21T20:06:13.746Z,10.67
2019-03-21T20:08:45.067Z,13.77
2019-03-21T20:11:16.816Z,11.90
2019-03-21T20:13:47.902Z,13.80
2019-03-21T20:16:19.027Z,18.87
2019-03-21T20:18:50.717Z,28.60
2019-03-21T20:21:23.363Z,32.50
2019-03-21T20:23:55.441Z,23.43
2019-03-21T20:26:26.610Z,26.03
2019-03-21T20:28:57.824Z,25.70
2019-03-21T20:31:29.026Z,26.57
2019-03-21T20:34:00.419Z,24.73
2019-03-21T20:36:32.008Z,24.43
2019-03-21T20:39:03.164Z,19.40
2019-03-21T20:41:34.438Z,17.67
2019-03-21T20:44:14.667Z,18.93
2019-03-21T20:46:38.669Z,13.30
2019-03-21T20:49:09.895Z,15.77
2019-03-21T20:51:41.290Z,17.50
2019-03-21T20:54:12.375Z,16.50
2019-03-21T20:56:46.229Z,13.07
2019-03-21T20:59:17.557Z,13.60
2019-03-21T21:01:49.018Z,17.03
2019-03-21T21:04:20.337Z,15.40
2019-03-21T21:06:51.579Z,14.57
2019-03-21T21:09:23.358Z,15.03
2019-03-21T21:11:54.975Z,15.97
2019-03-21T21:14:25.979Z,15.20
2019-03-21T21:16:57.361Z,13.77
2019-03-21T21:19:28.391Z,16.20
2019-03-21T21:22:01.455Z,12.47
2019-03-21T21:24:32.603Z,15.97
2019-03-21T21:27:04.601Z,13.03
2019-03-21T21:29:36.375Z,12.40
2019-03-21T21:32:07.701Z,13.13
2019-03-21T21:34:38.997Z,14.43
2019-03-21T21:37:10.306Z,14.77
2019-03-21T21:39:42.561Z,11.40
2019-03-21T21:45:32.025Z,10.37
2019-03-21T21:58:07.249Z,11.70
2019-03-21T22:04:31.645Z,14.23
2019-03-21T22:07:40.890Z,11.80
2019-03-21T22:13:50.042Z,13.37
2019-03-21T22:16:59.021Z,11.87
2019-03-21T22:22:56.130Z,13.97
2019-03-21T22:25:38.645Z,10.73
2019-03-21T22:28:20.896Z,11.30
2019-03-21T22:31:02.770Z,10.00
2019-03-21T22:33:44.594Z,11.57
2019-03-21T22:36:26.543Z,10.47
2019-03-21T22:39:08.635Z,10.73
2019-03-21T22:41:51.153Z,8.63
2019-03-21T22:44:33.167Z,8.90
2019-03-21T22:47:14.967Z,11.90
2019-03-21T22:49:57.101Z,9.00
2019-03-21T22:52:39.058Z,10.40
2019-03-21T22:55:21.358Z,11.27
2019-03-21T22:58:03.347Z,10.83
2019-03-21T23:00:47.431Z,10.60
2019-03-21T23:03:30.021Z,10.70
2019-03-21T23:06:12.121Z,9.97
2019-03-21T23:08:53.789Z,10.30
2019-03-21T23:11:35.841Z,9.67
2019-03-21T23:14:18.011Z,14.17
2019-03-21T23:17:00.496Z,10.07
2019-03-21T23:19:42.823Z,10.23
2019-03-21T23:22:25.212Z,11.37
2019-03-21T23:25:07.369Z,12.87
2019-03-21T23:27:49.199Z,10.80
2019-03-21T23:30:33.317Z,11.30
2019-03-21T23:33:14.604Z,11.87
2019-03-21T23:35:56.471Z,12.07
2019-03-21T23:38:38.129Z,13.53
2019-03-21T23:41:20.077Z,9.67
2019-03-21T23:44:02.238Z,10.60
2019-03-21T23:46:44.366Z,9.23
2019-03-21T23:49:26.195Z,9.70
2019-03-21T23:52:08.286Z,9.77
2019-03-21T23:54:50.752Z,8.60
2019-03-21T23:57:32.915Z,10.53
